sensor_id;sensor_type;location;lat;lon;timestamp;P1;durP1;ratioP1;P2;durP2;ratioP2
5460;SDS011;2753;49.196;8.286;2023-05-14T00:00:10;8.20;;;6.90;;
5460;SDS011;2753;49.196;8.286;2023-05-14T00:02:36;7.17;;;6.50;;
5460;SDS011;2753;49.196;8.286;2023-05-14T00:05:02;10.70;;;7.40;;
5460;SDS011;2753;49.196;8.286;2023-05-14T00:07:28;9.27;;;7.40;;
5460;SDS011;2753;49.196;8.286;2023-05-14T00:09:57;10.17;;;7.40;;
5460;SDS011;2753;49.196;8.286;2023-05-14T00:12:24;8.03;;;7.30;;
5460;SDS011;2753;49.196;8.286;2023-05-14T00:14:52;12.20;;;6.53;;
5460;SDS011;2753;49.196;8.286;2023-05-14T00:17:17;8.83;;;7.83;;
5460;SDS011;2753;49.196;8.286;2023-05-14T00:19:43;8.27;;;7.03;;
5460;SDS011;2753;49.196;8.286;2023-05-14T00:22:09;9.87;;;7.03;;
5460;SDS011;2753;49.196;8.286;2023-05-14T00:24:35;7.83;;;7.03;;
5460;SDS011;2753;49.196;8.286;2023-05-14T00:27:01;9.10;;;7.13;;
5460;SDS011;2753;49.196;8.286;2023-05-14T00:29:27;9.37;;;6.97;;
5460;SDS011;2753;49.196;8.286;2023-05-14T00:31:53;10.47;;;6.87;;
5460;SDS011;2753;49.196;8.286;2023-05-14T00:34:19;10.20;;;8.00;;
5460;SDS011;2753;49.196;8.286;2023-05-14T00:36:44;9.70;;;7.63;;
5460;SDS011;2753;49.196;8.286;2023-05-14T00:39:12;11.20;;;7.83;;
5460;SDS011;2753;49.196;8.286;2023-05-14T00:41:38;11.10;;;7.63;;
5460;SDS011;2753;49.196;8.286;2023-05-14T00:44:03;13.47;;;6.97;;
5460;SDS011;2753;49.196;8.286;2023-05-14T00:46:29;13.50;;;7.53;;
5460;SDS011;2753;49.196;8.286;2023-05-14T00:48:56;12.17;;;8.10;;
5460;SDS011;2753;49.196;8.286;2023-05-14T00:51:22;7.47;;;6.43;;
5460;SDS011;2753;49.196;8.286;2023-05-14T00:53:48;11.30;;;7.10;;
5460;SDS011;2753;49.196;8.286;2023-05-14T00:56:14;9.70;;;6.90;;
5460;SDS011;2753;49.196;8.286;2023-05-14T00:58:41;10.17;;;6.90;;
5460;SDS011;2753;49.196;8.286;2023-05-14T01:01:06;8.33;;;6.53;;
5460;SDS011;2753;49.196;8.286;2023-05-14T01:03:32;8.70;;;7.40;;
5460;SDS011;2753;49.196;8.286;2023-05-14T01:08:43;15.17;;;8.00;;
5460;SDS011;2753;49.196;8.286;2023-05-14T01:12:04;8.37;;;7.00;;
5460;SDS011;2753;49.196;8.286;2023-05-14T01:14:26;10.97;;;7.97;;
5460;SDS011;2753;49.196;8.286;2023-05-14T01:16:57;7.03;;;6.37;;
5460;SDS011;2753;49.196;8.286;2023-05-14T01:19:29;8.10;;;6.40;;
5460;SDS011;2753;49.196;8.286;2023-05-14T01:21:57;8.20;;;6.30;;
5460;SDS011;2753;49.196;8.286;2023-05-14T01:24:23;6.60;;;6.00;;
5460;SDS011;2753;49.196;8.286;2023-05-14T01:26:49;7.53;;;6.03;;
5460;SDS011;2753;49.196;8.286;2023-05-14T01:29:20;12.23;;;7.77;;
5460;SDS011;2753;49.196;8.286;2023-05-14T01:31:47;11.63;;;6.37;;
5460;SDS011;2753;49.196;8.286;2023-05-14T01:34:14;9.80;;;6.77;;
5460;SDS011;2753;49.196;8.286;2023-05-14T01:36:43;7.20;;;5.90;;
5460;SDS011;2753;49.196;8.286;2023-05-14T01:39:11;7.23;;;6.53;;
5460;SDS011;2753;49.196;8.286;2023-05-14T01:41:39;12.20;;;6.37;;
5460;SDS011;2753;49.196;8.286;2023-05-14T01:44:07;10.53;;;7.20;;
5460;SDS011;2753;49.196;8.286;2023-05-14T01:46:34;7.33;;;6.70;;
5460;SDS011;2753;49.196;8.286;2023-05-14T01:48:59;9.20;;;6.60;;
5460;SDS011;2753;49.196;8.286;2023-05-14T01:51:25;7.23;;;6.40;;
5460;SDS011;2753;49.196;8.286;2023-05-14T01:53:51;9.93;;;7.20;;
5460;SDS011;2753;49.196;8.286;2023-05-14T01:56:18;7.47;;;6.37;;
5460;SDS011;2753;49.196;8.286;2023-05-14T01:58:45;11.87;;;6.10;;
5460;SDS011;2753;49.196;8.286;2023-05-14T02:01:11;7.07;;;6.37;;
5460;SDS011;2753;49.196;8.286;2023-05-14T02:03:37;6.83;;;5.60;;
5460;SDS011;2753;49.196;8.286;2023-05-14T02:06:03;7.07;;;6.37;;
5460;SDS011;2753;49.196;8.286;2023-05-14T02:08:28;8.20;;;6.30;;
5460;SDS011;2753;49.196;8.286;2023-05-14T02:10:54;9.73;;;6.03;;
5460;SDS011;2753;49.196;8.286;2023-05-14T02:13:20;7.10;;;6.30;;
5460;SDS011;2753;49.196;8.286;2023-05-14T02:15:46;7.20;;;6.50;;
5460;SDS011;2753;49.196;8.286;2023-05-14T02:18:12;11.70;;;7.10;;
5460;SDS011;2753;49.196;8.286;2023-05-14T02:20:39;10.67;;;6.43;;
5460;SDS011;2753;49.196;8.286;2023-05-14T02:23:05;11.53;;;7.17;;
5460;SDS011;2753;49.196;8.286;2023-05-14T02:25:30;6.87;;;6.23;;
5460;SDS011;2753;49.196;8.286;2023-05-14T02:27:56;7.13;;;5.93;;
5460;SDS011;2753;49.196;8.286;2023-05-14T02:30:22;8.03;;;6.80;;
5460;SDS011;2753;49.196;8.286;2023-05-14T02:32:47;6.67;;;6.03;;
5460;SDS011;2753;49.196;8.286;2023-05-14T02:35:13;8.37;;;6.60;;
5460;SDS011;2753;49.196;8.286;2023-05-14T02:37:38;8.37;;;6.70;;
5460;SDS011;2753;49.196;8.286;2023-05-14T02:40:04;9.83;;;6.23;;
5460;SDS011;2753;49.196;8.286;2023-05-14T02:42:31;10.23;;;6.13;;
5460;SDS011;2753;49.196;8.286;2023-05-14T02:44:56;12.93;;;6.77;;
5460;SDS011;2753;49.196;8.286;2023-05-14T02:47:22;7.63;;;6.93;;
5460;SDS011;2753;49.196;8.286;2023-05-14T02:49:48;12.00;;;6.50;;
5460;SDS011;2753;49.196;8.286;2023-05-14T02:52:14;9.00;;;6.63;;
5460;SDS011;2753;49.196;8.286;2023-05-14T02:54:40;8.30;;;6.10;;
5460;SDS011;2753;49.196;8.286;2023-05-14T02:57:05;6.50;;;5.90;;
5460;SDS011;2753;49.196;8.286;2023-05-14T02:59:31;7.17;;;6.57;;
5460;SDS011;2753;49.196;8.286;2023-05-14T03:01:57;7.60;;;6.43;;
5460;SDS011;2753;49.196;8.286;2023-05-14T03:04:22;10.80;;;7.07;;
5460;SDS011;2753;49.196;8.286;2023-05-14T03:06:48;7.17;;;6.47;;
5460;SDS011;2753;49.196;8.286;2023-05-14T03:09:13;9.33;;;7.00;;
5460;SDS011;2753;49.196;8.286;2023-05-14T03:11:39;7.63;;;6.93;;
5460;SDS011;2753;49.196;8.286;2023-05-14T03:14:05;7.20;;;6.60;;
5460;SDS011;2753;49.196;8.286;2023-05-14T03:16:30;6.90;;;6.20;;
5460;SDS011;2753;49.196;8.286;2023-05-14T03:18:56;8.90;;;6.60;;
5460;SDS011;2753;49.196;8.286;2023-05-14T03:21:22;7.67;;;6.97;;
5460;SDS011;2753;49.196;8.286;2023-05-14T03:23:47;10.70;;;6.57;;
5460;SDS011;2753;49.196;8.286;2023-05-14T03:26:13;7.83;;;6.23;;
5460;SDS011;2753;49.196;8.286;2023-05-14T03:28:39;7.13;;;6.53;;
5460;SDS011;2753;49.196;8.286;2023-05-14T03:31:04;10.83;;;7.40;;
5460;SDS011;2753;49.196;8.286;2023-05-14T03:33:30;7.60;;;6.73;;
5460;SDS011;2753;49.196;8.286;2023-05-14T03:35:56;7.83;;;7.03;;
5460;SDS011;2753;49.196;8.286;2023-05-14T03:38:22;9.47;;;7.03;;
5460;SDS011;2753;49.196;8.286;2023-05-14T03:40:47;9.10;;;8.20;;
5460;SDS011;2753;49.196;8.286;2023-05-14T03:43:13;7.73;;;6.93;;
5460;SDS011;2753;49.196;8.286;2023-05-14T03:45:39;9.03;;;8.07;;
5460;SDS011;2753;49.196;8.286;2023-05-14T03:48:04;14.80;;;8.03;;
5460;SDS011;2753;49.196;8.286;2023-05-14T03:50:30;10.40;;;7.60;;
5460;SDS011;2753;49.196;8.286;2023-05-14T03:52:56;8.33;;;7.40;;
5460;SDS011;2753;49.196;8.286;2023-05-14T03:55:22;8.27;;;7.47;;
5460;SDS011;2753;49.196;8.286;2023-05-14T03:57:47;10.90;;;7.93;;
5460;SDS011;2753;49.196;8.286;2023-05-14T04:00:13;9.30;;;7.60;;
5460;SDS011;2753;49.196;8.286;2023-05-14T04:02:39;9.43;;;8.53;;
5460;SDS011;2753;49.196;8.286;2023-05-14T04:05:05;7.73;;;7.03;;
5460;SDS011;2753;49.196;8.286;2023-05-14T04:07:31;10.00;;;8.70;;
5460;SDS011;2753;49.196;8.286;2023-05-14T04:09:57;10.00;;;7.60;;
5460;SDS011;2753;49.196;8.286;2023-05-14T04:12:23;10.53;;;8.33;;
5460;SDS011;2753;49.196;8.286;2023-05-14T04:14:50;9.23;;;7.40;;
5460;SDS011;2753;49.196;8.286;2023-05-14T04:17:16;9.27;;;8.30;;
5460;SDS011;2753;49.196;8.286;2023-05-14T04:19:42;10.20;;;7.77;;
5460;SDS011;2753;49.196;8.286;2023-05-14T04:22:07;8.97;;;7.33;;
5460;SDS011;2753;49.196;8.286;2023-05-14T04:24:33;12.23;;;7.53;;
5460;SDS011;2753;49.196;8.286;2023-05-14T04:26:59;10.57;;;7.90;;
5460;SDS011;2753;49.196;8.286;2023-05-14T04:29:25;8.60;;;6.80;;
5460;SDS011;2753;49.196;8.286;2023-05-14T04:31:50;16.60;;;7.67;;
5460;SDS011;2753;49.196;8.286;2023-05-14T04:34:16;10.27;;;8.43;;
5460;SDS011;2753;49.196;8.286;2023-05-14T04:36:42;10.00;;;8.27;;
5460;SDS011;2753;49.196;8.286;2023-05-14T04:39:07;9.70;;;7.77;;
5460;SDS011;2753;49.196;8.286;2023-05-14T04:41:39;8.57;;;7.73;;
5460;SDS011;2753;49.196;8.286;2023-05-14T04:44:04;11.07;;;7.90;;
5460;SDS011;2753;49.196;8.286;2023-05-14T04:46:31;9.90;;;6.87;;
5460;SDS011;2753;49.196;8.286;2023-05-14T04:48:56;14.40;;;7.60;;
5460;SDS011;2753;49.196;8.286;2023-05-14T04:51:22;13.37;;;7.97;;
5460;SDS011;2753;49.196;8.286;2023-05-14T04:53:48;8.57;;;7.23;;
5460;SDS011;2753;49.196;8.286;2023-05-14T04:56:13;11.10;;;8.30;;
5460;SDS011;2753;49.196;8.286;2023-05-14T04:58:39;10.23;;;7.80;;
5460;SDS011;2753;49.196;8.286;2023-05-14T05:01:05;8.03;;;7.30;;
5460;SDS011;2753;49.196;8.286;2023-05-14T05:03:31;9.03;;;8.13;;
5460;SDS011;2753;49.196;8.286;2023-05-14T05:05:56;9.23;;;7.90;;
5460;SDS011;2753;49.196;8.286;2023-05-14T05:08:22;8.00;;;7.10;;
5460;SDS011;2753;49.196;8.286;2023-05-14T05:10:48;8.20;;;7.30;;
5460;SDS011;2753;49.196;8.286;2023-05-14T05:13:13;10.07;;;8.43;;
5460;SDS011;2753;49.196;8.286;2023-05-14T05:15:41;11.13;;;8.77;;
5460;SDS011;2753;49.196;8.286;2023-05-14T05:18:07;10.80;;;8.00;;
5460;SDS011;2753;49.196;8.286;2023-05-14T05:20:33;9.60;;;7.97;;
5460;SDS011;2753;49.196;8.286;2023-05-14T05:22:58;9.00;;;8.10;;
5460;SDS011;2753;49.196;8.286;2023-05-14T05:25:24;12.87;;;8.43;;
5460;SDS011;2753;49.196;8.286;2023-05-14T05:27:50;8.20;;;7.37;;
5460;SDS011;2753;49.196;8.286;2023-05-14T05:30:15;11.57;;;8.40;;
5460;SDS011;2753;49.196;8.286;2023-05-14T05:32:41;12.33;;;7.70;;
5460;SDS011;2753;49.196;8.286;2023-05-14T05:35:07;8.83;;;7.90;;
5460;SDS011;2753;49.196;8.286;2023-05-14T05:37:33;10.03;;;8.20;;
5460;SDS011;2753;49.196;8.286;2023-05-14T05:39:58;17.40;;;8.83;;
5460;SDS011;2753;49.196;8.286;2023-05-14T05:42:24;9.17;;;7.70;;
5460;SDS011;2753;49.196;8.286;2023-05-14T05:44:50;13.63;;;8.00;;
5460;SDS011;2753;49.196;8.286;2023-05-14T05:47:16;8.23;;;6.80;;
5460;SDS011;2753;49.196;8.286;2023-05-14T05:49:41;9.83;;;7.83;;
5460;SDS011;2753;49.196;8.286;2023-05-14T05:52:07;12.10;;;8.23;;
5460;SDS011;2753;49.196;8.286;2023-05-14T05:54:33;9.43;;;7.73;;
5460;SDS011;2753;49.196;8.286;2023-05-14T05:56:58;9.27;;;7.80;;
5460;SDS011;2753;49.196;8.286;2023-05-14T05:59:24;8.87;;;7.70;;
5460;SDS011;2753;49.196;8.286;2023-05-14T06:01:50;10.03;;;7.77;;
5460;SDS011;2753;49.196;8.286;2023-05-14T06:04:16;8.53;;;7.63;;
5460;SDS011;2753;49.196;8.286;2023-05-14T06:06:42;11.90;;;8.23;;
5460;SDS011;2753;49.196;8.286;2023-05-14T06:09:07;8.73;;;7.80;;
5460;SDS011;2753;49.196;8.286;2023-05-14T06:11:33;9.60;;;8.00;;
5460;SDS011;2753;49.196;8.286;2023-05-14T06:14:00;9.60;;;7.97;;
5460;SDS011;2753;49.196;8.286;2023-05-14T06:16:27;10.90;;;7.13;;
5460;SDS011;2753;49.196;8.286;2023-05-14T06:18:53;10.67;;;8.20;;
5460;SDS011;2753;49.196;8.286;2023-05-14T06:21:19;10.23;;;8.40;;
5460;SDS011;2753;49.196;8.286;2023-05-14T06:23:45;10.80;;;7.60;;
5460;SDS011;2753;49.196;8.286;2023-05-14T06:26:11;11.77;;;9.70;;
5460;SDS011;2753;49.196;8.286;2023-05-14T06:28:37;11.93;;;9.37;;
5460;SDS011;2753;49.196;8.286;2023-05-14T06:31:02;12.33;;;8.60;;
5460;SDS011;2753;49.196;8.286;2023-05-14T06:33:28;19.13;;;8.40;;
5460;SDS011;2753;49.196;8.286;2023-05-14T06:36:02;13.23;;;7.90;;
5460;SDS011;2753;49.196;8.286;2023-05-14T06:38:31;13.50;;;8.20;;
5460;SDS011;2753;49.196;8.286;2023-05-14T06:40:56;13.00;;;9.20;;
5460;SDS011;2753;49.196;8.286;2023-05-14T06:43:22;8.57;;;7.67;;
5460;SDS011;2753;49.196;8.286;2023-05-14T06:45:48;15.10;;;7.90;;
5460;SDS011;2753;49.196;8.286;2023-05-14T06:48:15;9.43;;;6.73;;
5460;SDS011;2753;49.196;8.286;2023-05-14T06:50:45;10.10;;;8.50;;
5460;SDS011;2753;49.196;8.286;2023-05-14T06:53:11;18.07;;;7.93;;
5460;SDS011;2753;49.196;8.286;2023-05-14T06:55:37;11.37;;;8.00;;
5460;SDS011;2753;49.196;8.286;2023-05-14T06:58:05;8.00;;;7.20;;
5460;SDS011;2753;49.196;8.286;2023-05-14T07:00:31;7.70;;;6.97;;
5460;SDS011;2753;49.196;8.286;2023-05-14T07:02:56;10.53;;;7.37;;
5460;SDS011;2753;49.196;8.286;2023-05-14T07:05:23;7.90;;;6.80;;
5460;SDS011;2753;49.196;8.286;2023-05-14T07:07:48;10.87;;;7.50;;
5460;SDS011;2753;49.196;8.286;2023-05-14T07:10:14;6.87;;;6.20;;
5460;SDS011;2753;49.196;8.286;2023-05-14T07:12:40;7.30;;;6.10;;
5460;SDS011;2753;49.196;8.286;2023-05-14T07:15:06;6.30;;;5.70;;
5460;SDS011;2753;49.196;8.286;2023-05-14T07:17:32;5.63;;;5.13;;
5460;SDS011;2753;49.196;8.286;2023-05-14T07:19:58;5.80;;;4.97;;
5460;SDS011;2753;49.196;8.286;2023-05-14T07:22:24;10.00;;;5.67;;
5460;SDS011;2753;49.196;8.286;2023-05-14T07:24:49;5.63;;;5.10;;
5460;SDS011;2753;49.196;8.286;2023-05-14T07:27:15;6.53;;;5.93;;
5460;SDS011;2753;49.196;8.286;2023-05-14T07:29:41;7.00;;;6.30;;
5460;SDS011;2753;49.196;8.286;2023-05-14T07:32:07;7.60;;;6.50;;
5460;SDS011;2753;49.196;8.286;2023-05-14T07:34:33;6.70;;;4.90;;
5460;SDS011;2753;49.196;8.286;2023-05-14T07:36:59;7.20;;;6.50;;
5460;SDS011;2753;49.196;8.286;2023-05-14T07:39:25;5.97;;;5.33;;
5460;SDS011;2753;49.196;8.286;2023-05-14T07:41:51;12.90;;;5.30;;
5460;SDS011;2753;49.196;8.286;2023-05-14T07:44:18;5.10;;;4.70;;
5460;SDS011;2753;49.196;8.286;2023-05-14T07:46:44;6.20;;;4.83;;
5460;SDS011;2753;49.196;8.286;2023-05-14T07:49:10;5.30;;;4.80;;
5460;SDS011;2753;49.196;8.286;2023-05-14T07:51:36;6.37;;;5.77;;
5460;SDS011;2753;49.196;8.286;2023-05-14T07:54:02;6.63;;;5.10;;
5460;SDS011;2753;49.196;8.286;2023-05-14T07:56:27;5.63;;;4.80;;
5460;SDS011;2753;49.196;8.286;2023-05-14T07:58:53;6.13;;;5.43;;
5460;SDS011;2753;49.196;8.286;2023-05-14T08:01:20;5.10;;;4.40;;
5460;SDS011;2753;49.196;8.286;2023-05-14T08:03:49;5.30;;;4.73;;
5460;SDS011;2753;49.196;8.286;2023-05-14T08:06:14;6.13;;;4.37;;
5460;SDS011;2753;49.196;8.286;2023-05-14T08:08:40;4.80;;;4.40;;
5460;SDS011;2753;49.196;8.286;2023-05-14T08:11:06;13.20;;;5.07;;
5460;SDS011;2753;49.196;8.286;2023-05-14T08:13:32;8.63;;;4.67;;
5460;SDS011;2753;49.196;8.286;2023-05-14T08:15:57;5.93;;;4.77;;
5460;SDS011;2753;49.196;8.286;2023-05-14T08:18:23;5.50;;;4.70;;
5460;SDS011;2753;49.196;8.286;2023-05-14T08:20:49;5.17;;;4.67;;
5460;SDS011;2753;49.196;8.286;2023-05-14T08:23:15;5.50;;;4.70;;
5460;SDS011;2753;49.196;8.286;2023-05-14T08:25:40;5.50;;;5.00;;
5460;SDS011;2753;49.196;8.286;2023-05-14T08:28:06;4.20;;;3.80;;
5460;SDS011;2753;49.196;8.286;2023-05-14T08:30:33;5.00;;;4.60;;
5460;SDS011;2753;49.196;8.286;2023-05-14T08:32:59;4.93;;;4.23;;
5460;SDS011;2753;49.196;8.286;2023-05-14T08:35:25;5.43;;;4.90;;
5460;SDS011;2753;49.196;8.286;2023-05-14T08:37:51;10.90;;;5.20;;
5460;SDS011;2753;49.196;8.286;2023-05-14T08:40:17;5.13;;;4.43;;
5460;SDS011;2753;49.196;8.286;2023-05-14T08:42:43;4.20;;;3.90;;
5460;SDS011;2753;49.196;8.286;2023-05-14T08:45:28;4.63;;;4.23;;
5460;SDS011;2753;49.196;8.286;2023-05-14T08:47:58;4.57;;;4.27;;
5460;SDS011;2753;49.196;8.286;2023-05-14T08:50:26;4.40;;;4.10;;
5460;SDS011;2753;49.196;8.286;2023-05-14T08:52:54;4.67;;;4.33;;
5460;SDS011;2753;49.196;8.286;2023-05-14T08:55:20;6.57;;;4.83;;
5460;SDS011;2753;49.196;8.286;2023-05-14T08:57:46;8.50;;;5.10;;
5460;SDS011;2753;49.196;8.286;2023-05-14T09:00:13;4.80;;;4.40;;
5460;SDS011;2753;49.196;8.286;2023-05-14T09:02:39;4.70;;;4.30;;
5460;SDS011;2753;49.196;8.286;2023-05-14T09:05:05;7.53;;;5.17;;
5460;SDS011;2753;49.196;8.286;2023-05-14T09:07:33;6.33;;;5.10;;
5460;SDS011;2753;49.196;8.286;2023-05-14T09:09:59;5.30;;;4.80;;
5460;SDS011;2753;49.196;8.286;2023-05-14T09:12:26;5.37;;;4.90;;
5460;SDS011;2753;49.196;8.286;2023-05-14T09:14:52;5.00;;;4.60;;
5460;SDS011;2753;49.196;8.286;2023-05-14T09:17:18;8.20;;;5.13;;
5460;SDS011;2753;49.196;8.286;2023-05-14T09:19:44;7.90;;;3.90;;
5460;SDS011;2753;49.196;8.286;2023-05-14T09:22:14;4.13;;;3.80;;
5460;SDS011;2753;49.196;8.286;2023-05-14T09:24:41;4.43;;;4.13;;
5460;SDS011;2753;49.196;8.286;2023-05-14T09:27:08;6.07;;;4.50;;
5460;SDS011;2753;49.196;8.286;2023-05-14T09:29:39;5.60;;;4.60;;
5460;SDS011;2753;49.196;8.286;2023-05-14T09:32:05;4.10;;;3.80;;
5460;SDS011;2753;49.196;8.286;2023-05-14T09:34:34;4.70;;;4.20;;
5460;SDS011;2753;49.196;8.286;2023-05-14T09:37:03;5.33;;;4.40;;
5460;SDS011;2753;49.196;8.286;2023-05-14T09:39:30;7.13;;;4.60;;
5460;SDS011;2753;49.196;8.286;2023-05-14T09:41:57;5.27;;;4.47;;
5460;SDS011;2753;49.196;8.286;2023-05-14T09:44:23;5.60;;;4.40;;
5460;SDS011;2753;49.196;8.286;2023-05-14T09:46:50;5.70;;;4.60;;
5460;SDS011;2753;49.196;8.286;2023-05-14T09:49:17;5.20;;;4.37;;
5460;SDS011;2753;49.196;8.286;2023-05-14T09:51:43;4.80;;;4.40;;
5460;SDS011;2753;49.196;8.286;2023-05-14T09:54:08;4.60;;;4.20;;
5460;SDS011;2753;49.196;8.286;2023-05-14T09:56:35;4.57;;;4.27;;
5460;SDS011;2753;49.196;8.286;2023-05-14T09:59:02;8.10;;;4.60;;
5460;SDS011;2753;49.196;8.286;2023-05-14T10:01:28;4.23;;;3.83;;
5460;SDS011;2753;49.196;8.286;2023-05-14T10:03:55;5.63;;;4.97;;
5460;SDS011;2753;49.196;8.286;2023-05-14T10:06:22;5.20;;;4.80;;
5460;SDS011;2753;49.196;8.286;2023-05-14T10:09:01;7.70;;;5.43;;
5460;SDS011;2753;49.196;8.286;2023-05-14T10:11:30;5.43;;;4.93;;
5460;SDS011;2753;49.196;8.286;2023-05-14T10:16:34;4.40;;;4.00;;
5460;SDS011;2753;49.196;8.286;2023-05-14T10:19:06;5.00;;;4.07;;
5460;SDS011;2753;49.196;8.286;2023-05-14T10:21:34;6.23;;;5.63;;
5460;SDS011;2753;49.196;8.286;2023-05-14T10:24:04;6.33;;;5.73;;
5460;SDS011;2753;49.196;8.286;2023-05-14T10:26:31;6.27;;;5.27;;
5460;SDS011;2753;49.196;8.286;2023-05-14T10:28:57;5.33;;;4.90;;
5460;SDS011;2753;49.196;8.286;2023-05-14T10:39:51;5.43;;;4.87;;
5460;SDS011;2753;49.196;8.286;2023-05-14T10:42:34;5.10;;;4.70;;
5460;SDS011;2753;49.196;8.286;2023-05-14T10:45:05;6.43;;;5.10;;
5460;SDS011;2753;49.196;8.286;2023-05-14T10:47:39;3.83;;;3.53;;
5460;SDS011;2753;49.196;8.286;2023-05-14T10:50:07;6.80;;;4.40;;
5460;SDS011;2753;49.196;8.286;2023-05-14T10:52:36;3.47;;;3.17;;
5460;SDS011;2753;49.196;8.286;2023-05-14T10:55:03;3.77;;;3.47;;
5460;SDS011;2753;49.196;8.286;2023-05-14T10:57:34;5.37;;;4.20;;
5460;SDS011;2753;49.196;8.286;2023-05-14T11:00:02;4.77;;;4.23;;
5460;SDS011;2753;49.196;8.286;2023-05-14T11:02:32;3.90;;;3.60;;
5460;SDS011;2753;49.196;8.286;2023-05-14T11:10:03;5.57;;;3.90;;
5460;SDS011;2753;49.196;8.286;2023-05-14T11:12:30;4.17;;;3.87;;
5460;SDS011;2753;49.196;8.286;2023-05-14T11:15:01;4.93;;;4.50;;
5460;SDS011;2753;49.196;8.286;2023-05-14T11:17:29;5.13;;;4.67;;
5460;SDS011;2753;49.196;8.286;2023-05-14T11:19:56;4.00;;;3.77;;
5460;SDS011;2753;49.196;8.286;2023-05-14T11:22:23;4.57;;;4.17;;
5460;SDS011;2753;49.196;8.286;2023-05-14T11:24:49;4.03;;;3.73;;
5460;SDS011;2753;49.196;8.286;2023-05-14T11:27:18;4.00;;;3.60;;
5460;SDS011;2753;49.196;8.286;2023-05-14T11:29:46;3.67;;;3.47;;
5460;SDS011;2753;49.196;8.286;2023-05-14T11:32:12;6.00;;;4.13;;
5460;SDS011;2753;49.196;8.286;2023-05-14T11:34:39;4.10;;;3.80;;
5460;SDS011;2753;49.196;8.286;2023-05-14T11:37:06;6.90;;;4.00;;
5460;SDS011;2753;49.196;8.286;2023-05-14T11:39:33;4.13;;;3.83;;
5460;SDS011;2753;49.196;8.286;2023-05-14T11:42:02;7.03;;;4.30;;
5460;SDS011;2753;49.196;8.286;2023-05-14T11:44:38;6.70;;;4.23;;
5460;SDS011;2753;49.196;8.286;2023-05-14T11:47:05;3.50;;;3.30;;
5460;SDS011;2753;49.196;8.286;2023-05-14T11:49:31;4.23;;;3.53;;
5460;SDS011;2753;49.196;8.286;2023-05-14T11:52:09;3.67;;;3.37;;
5460;SDS011;2753;49.196;8.286;2023-05-14T11:54:36;4.00;;;3.43;;
5460;SDS011;2753;49.196;8.286;2023-05-14T11:57:06;3.43;;;3.23;;
5460;SDS011;2753;49.196;8.286;2023-05-14T11:59:42;6.10;;;4.10;;
5460;SDS011;2753;49.196;8.286;2023-05-14T12:02:11;4.60;;;4.00;;
5460;SDS011;2753;49.196;8.286;2023-05-14T12:04:39;4.67;;;4.13;;
5460;SDS011;2753;49.196;8.286;2023-05-14T12:07:06;4.30;;;3.90;;
5460;SDS011;2753;49.196;8.286;2023-05-14T12:09:35;7.00;;;4.00;;
5460;SDS011;2753;49.196;8.286;2023-05-14T12:12:12;5.83;;;4.37;;
5460;SDS011;2753;49.196;8.286;2023-05-14T12:14:39;9.63;;;3.67;;
5460;SDS011;2753;49.196;8.286;2023-05-14T12:17:15;4.83;;;3.83;;
5460;SDS011;2753;49.196;8.286;2023-05-14T12:19:41;4.93;;;4.17;;
5460;SDS011;2753;49.196;8.286;2023-05-14T12:22:12;9.30;;;4.30;;
5460;SDS011;2753;49.196;8.286;2023-05-14T12:24:43;3.50;;;3.30;;
5460;SDS011;2753;49.196;8.286;2023-05-14T12:27:20;4.20;;;3.90;;
5460;SDS011;2753;49.196;8.286;2023-05-14T12:29:47;3.43;;;3.10;;
5460;SDS011;2753;49.196;8.286;2023-05-14T12:32:13;4.43;;;3.57;;
5460;SDS011;2753;49.196;8.286;2023-05-14T12:34:38;8.50;;;3.43;;
5460;SDS011;2753;49.196;8.286;2023-05-14T12:37:05;12.73;;;3.60;;
5460;SDS011;2753;49.196;8.286;2023-05-14T12:39:33;5.70;;;3.80;;
5460;SDS011;2753;49.196;8.286;2023-05-14T12:41:59;4.67;;;3.70;;
5460;SDS011;2753;49.196;8.286;2023-05-14T12:44:25;4.07;;;3.77;;
5460;SDS011;2753;49.196;8.286;2023-05-14T12:46:51;3.93;;;3.63;;
5460;SDS011;2753;49.196;8.286;2023-05-14T12:49:17;4.00;;;3.70;;
5460;SDS011;2753;49.196;8.286;2023-05-14T12:51:43;4.43;;;3.17;;
5460;SDS011;2753;49.196;8.286;2023-05-14T12:54:11;3.60;;;3.30;;
5460;SDS011;2753;49.196;8.286;2023-05-14T12:56:39;3.33;;;3.03;;
5460;SDS011;2753;49.196;8.286;2023-05-14T12:59:05;3.60;;;3.40;;
5460;SDS011;2753;49.196;8.286;2023-05-14T13:01:31;7.43;;;3.70;;
5460;SDS011;2753;49.196;8.286;2023-05-14T13:03:56;3.43;;;3.13;;
5460;SDS011;2753;49.196;8.286;2023-05-14T13:06:23;3.77;;;3.00;;
5460;SDS011;2753;49.196;8.286;2023-05-14T13:08:49;3.20;;;3.00;;
5460;SDS011;2753;49.196;8.286;2023-05-14T13:11:14;4.90;;;3.30;;
5460;SDS011;2753;49.196;8.286;2023-05-14T13:13:40;4.93;;;4.00;;
5460;SDS011;2753;49.196;8.286;2023-05-14T13:16:06;2.83;;;2.73;;
5460;SDS011;2753;49.196;8.286;2023-05-14T13:18:32;3.13;;;2.90;;
5460;SDS011;2753;49.196;8.286;2023-05-14T13:20:58;4.07;;;3.50;;
5460;SDS011;2753;49.196;8.286;2023-05-14T13:23:23;3.00;;;2.80;;
5460;SDS011;2753;49.196;8.286;2023-05-14T13:25:49;3.23;;;3.07;;
5460;SDS011;2753;49.196;8.286;2023-05-14T13:28:16;2.90;;;2.80;;
5460;SDS011;2753;49.196;8.286;2023-05-14T13:30:44;3.53;;;2.73;;
5460;SDS011;2753;49.196;8.286;2023-05-14T13:33:40;6.90;;;3.67;;
5460;SDS011;2753;49.196;8.286;2023-05-14T13:36:07;2.97;;;2.87;;
5460;SDS011;2753;49.196;8.286;2023-05-14T13:38:34;3.27;;;3.03;;
5460;SDS011;2753;49.196;8.286;2023-05-14T13:41:00;3.20;;;3.00;;
5460;SDS011;2753;49.196;8.286;2023-05-14T13:43:30;3.77;;;3.20;;
5460;SDS011;2753;49.196;8.286;2023-05-14T13:45:57;7.83;;;3.43;;
5460;SDS011;2753;49.196;8.286;2023-05-14T13:48:23;3.47;;;3.27;;
5460;SDS011;2753;49.196;8.286;2023-05-14T13:50:50;3.50;;;3.20;;
5460;SDS011;2753;49.196;8.286;2023-05-14T13:53:16;3.53;;;3.33;;
5460;SDS011;2753;49.196;8.286;2023-05-14T13:55:46;3.63;;;3.33;;
5460;SDS011;2753;49.196;8.286;2023-05-14T13:58:14;4.70;;;4.10;;
5460;SDS011;2753;49.196;8.286;2023-05-14T14:00:40;3.83;;;3.07;;
5460;SDS011;2753;49.196;8.286;2023-05-14T14:03:06;3.70;;;3.40;;
5460;SDS011;2753;49.196;8.286;2023-05-14T14:05:33;3.37;;;3.17;;
5460;SDS011;2753;49.196;8.286;2023-05-14T14:07:59;3.40;;;3.20;;
5460;SDS011;2753;49.196;8.286;2023-05-14T14:10:25;4.00;;;3.20;;
5460;SDS011;2753;49.196;8.286;2023-05-14T14:12:52;6.57;;;3.80;;
5460;SDS011;2753;49.196;8.286;2023-05-14T14:15:18;4.17;;;3.27;;
5460;SDS011;2753;49.196;8.286;2023-05-14T14:17:44;4.50;;;4.00;;
5460;SDS011;2753;49.196;8.286;2023-05-14T14:20:09;5.10;;;3.20;;
5460;SDS011;2753;49.196;8.286;2023-05-14T14:22:36;3.73;;;3.43;;
5460;SDS011;2753;49.196;8.286;2023-05-14T14:25:02;4.37;;;3.90;;
5460;SDS011;2753;49.196;8.286;2023-05-14T14:27:28;4.73;;;3.30;;
5460;SDS011;2753;49.196;8.286;2023-05-14T14:29:58;3.40;;;3.10;;
5460;SDS011;2753;49.196;8.286;2023-05-14T14:32:24;3.17;;;2.97;;
5460;SDS011;2753;49.196;8.286;2023-05-14T14:34:50;3.33;;;3.13;;
5460;SDS011;2753;49.196;8.286;2023-05-14T14:37:16;3.20;;;2.97;;
5460;SDS011;2753;49.196;8.286;2023-05-14T14:39:42;5.60;;;3.37;;
5460;SDS011;2753;49.196;8.286;2023-05-14T14:42:07;4.43;;;3.70;;
5460;SDS011;2753;49.196;8.286;2023-05-14T14:44:33;3.97;;;3.67;;
5460;SDS011;2753;49.196;8.286;2023-05-14T14:46:59;3.30;;;3.10;;
5460;SDS011;2753;49.196;8.286;2023-05-14T14:49:25;3.70;;;3.37;;
5460;SDS011;2753;49.196;8.286;2023-05-14T14:51:52;7.33;;;3.47;;
5460;SDS011;2753;49.196;8.286;2023-05-14T14:54:19;3.87;;;3.50;;
5460;SDS011;2753;49.196;8.286;2023-05-14T14:56:47;3.03;;;2.80;;
5460;SDS011;2753;49.196;8.286;2023-05-14T14:59:16;3.27;;;2.97;;
5460;SDS011;2753;49.196;8.286;2023-05-14T15:01:42;4.70;;;3.67;;
5460;SDS011;2753;49.196;8.286;2023-05-14T15:04:07;6.53;;;3.50;;
5460;SDS011;2753;49.196;8.286;2023-05-14T15:06:33;3.23;;;2.93;;
5460;SDS011;2753;49.196;8.286;2023-05-14T15:08:59;3.03;;;2.83;;
5460;SDS011;2753;49.196;8.286;2023-05-14T15:11:25;3.73;;;3.50;;
5460;SDS011;2753;49.196;8.286;2023-05-14T15:13:51;6.33;;;2.60;;
5460;SDS011;2753;49.196;8.286;2023-05-14T15:16:17;9.00;;;2.90;;
5460;SDS011;2753;49.196;8.286;2023-05-14T15:18:43;5.20;;;3.30;;
5460;SDS011;2753;49.196;8.286;2023-05-14T15:21:09;3.27;;;3.00;;
5460;SDS011;2753;49.196;8.286;2023-05-14T15:23:35;4.50;;;3.20;;
5460;SDS011;2753;49.196;8.286;2023-05-14T15:26:01;3.63;;;3.33;;
5460;SDS011;2753;49.196;8.286;2023-05-14T15:28:28;3.63;;;3.40;;